Christine Anderson — WCN2606 — position and weather

sailwx.info

Track history (hours):
 
Tides and Currents Weather Stations Pressure Air Temp Water Temp Dewpoint Dewpoint Depression Visibility Wind Speed Wind Dir Waves Ship Positions

Christine Anderson

Owner: PIERCE, COUNTY OF, TACOMA, WA. More information available from US FCC via Universal Licensing System and Coast Guard Vessel Documentation Center.

Last reported at 2016-Jul-25 02:07 UTC. Time now 2016-Jul-25 15:55 UTC.
Position N 47°10' W 122°36'.

MMSI: 366659730.

Date/timePositionNaut miles runAvg speedWind from/ knotsBaromVisibWave heightAir tempDewpointWater temp
2016-Jul-25 02:07N 47°10' W 122°36'3 5.1
2016-Jul-25 01:32N 47°11' W 122°41'0 0.3
2016-Jul-25 00:33N 47°11' W 122°40'2 1.9
2016-Jul-24 23:33N 47°11' W 122°37'0 0.3
2016-Jul-24 22:34N 47°11' W 122°37'1 0.7
2016-Jul-24 21:34N 47°11' W 122°38'1 1.3
2016-Jul-24 20:32N 47°10' W 122°36'0 0.1
2016-Jul-24 19:33N 47°11' W 122°36'0 0.0
2016-Jul-24 13:28N 47°10' W 122°36'0 0.0
2016-Jul-24 06:09N 47°10' W 122°36'3 4.6
2016-Jul-24 05:33N 47°11' W 122°40'3 2.5
2016-Jul-24 04:28N 47°10' W 122°36'0 0.0
2016-Jul-24 03:28N 47°10' W 122°36'3 3.3
2016-Jul-24 02:33N 47°11' W 122°41'0 0.1
2016-Jul-24 01:33N 47°11' W 122°40'3 2.8
2016-Jul-24 00:32N 47°11' W 122°36'0 0.4
2016-Jul-23 23:33N 47°10' W 122°36'0 0.3
2016-Jul-23 22:08N 47°11' W 122°36'2 3.1
2016-Jul-23 21:33N 47°11' W 122°39'2 1.7
2016-Jul-23 20:27N 47°10' W 122°36'3 3.3
2016-Jul-23 19:33N 47°11' W 122°40'3 2.9
2016-Jul-23 18:32N 47°10' W 122°36'3 2.6
2016-Jul-23 17:22N 47°11' W 122°41'1 0.8
2016-Jul-23 16:33N 47°11' W 122°40'0 0.2
2016-Jul-23 15:32N 47°11' W 122°40'0 0.1
2016-Jul-23 14:33N 47°11' W 122°40'3 2.5
2016-Jul-23 13:33N 47°10' W 122°36'0 0.0
2016-Jul-23 12:33N 47°10' W 122°36'2 0.4
2016-Jul-23 06:33N 47°11' W 122°40'1 0.6
2016-Jul-23 04:34N 47°11' W 122°38'1 1.2
2016-Jul-23 03:32N 47°10' W 122°36'1 1.3
2016-Jul-23 02:33N 47°10' W 122°38'1 1.3
2016-Jul-23 01:33N 47°10' W 122°36'0 0.3
2016-Jul-23 00:32N 47°11' W 122°36'2 1.7
2016-Jul-22 23:33N 47°11' W 122°39'1 0.7
2016-Jul-22 22:34N 47°11' W 122°38'1 1.1
2016-Jul-22 21:33N 47°11' W 122°39'2 2.0
2016-Jul-22 20:27N 47°10' W 122°36'3 3.2
2016-Jul-22 19:33N 47°11' W 122°40'3 2.8
2016-Jul-22 18:33N 47°10' W 122°36'3 2.5
2016-Jul-22 17:22N 47°11' W 122°41'0 0.1
2016-Jul-22 16:33N 47°11' W 122°41'0 0.0
2016-Jul-22 15:33N 47°11' W 122°41'0 0.5
2016-Jul-22 14:33N 47°11' W 122°40'3 2.6
2016-Jul-22 13:34N 47°10' W 122°36'0 0.0
2016-Jul-22 12:34N 47°10' W 122°36'0 0.0
2016-Jul-22 11:32N 47°10' W 122°36'0 0.0
2016-Jul-22 04:33N 47°10' W 122°36'0 0.0
2016-Jul-22 03:33N 47°10' W 122°36'2 2.1
2016-Jul-22 02:33N 47°11' W 122°39'2 2.0
2016-Jul-22 01:31N 47°11' W 122°36'0 0.2
2016-Jul-22 00:26N 47°10' W 122°36'0 0.0
2016-Jul-21 23:19N 47°10' W 122°36'0 0.2
2016-Jul-21 22:07N 47°11' W 122°36'2 4.2
2016-Jul-21 21:33N 47°11' W 122°40'2 2.0
2016-Jul-21 20:20N 47°10' W 122°36'3 2.9
2016-Jul-21 19:19N 47°11' W 122°40'3 3.5
2016-Jul-21 18:29N 47°10' W 122°36'3 3.1
2016-Jul-21 17:30N 47°11' W 122°41'0 0.1
2016-Jul-21 16:24N 47°11' W 122°40'0 0.0
2016-Jul-21 15:18N 47°11' W 122°40'0 0.6
2016-Jul-21 14:33N 47°11' W 122°40'2 2.5
2016-Jul-21 13:33N 47°10' W 122°36'0 0.0
2016-Jul-21 12:33N 47°10' W 122°36'1 0.1
2016-Jul-21 04:23N 47°11' W 122°37'1 1.0
2016-Jul-21 03:30N 47°10' W 122°36'0 0.0
2016-Jul-21 02:33N 47°10' W 122°36'0 0.0
2016-Jul-21 01:27N 47°10' W 122°36'0 0.2
2016-Jul-21 00:12N 47°11' W 122°36'0 0.6
2016-Jul-20 23:33N 47°11' W 122°37'0 0.3
2016-Jul-20 22:11N 47°11' W 122°36'2 2.9
2016-Jul-20 21:31N 47°11' W 122°39'2 2.0
2016-Jul-20 20:31N 47°10' W 122°36'3 3.0
2016-Jul-20 19:31N 47°11' W 122°41'3 3.0
2016-Jul-20 18:30N 47°10' W 122°36'3 3.2
2016-Jul-20 17:33N 47°11' W 122°41'0 0.0
2016-Jul-20 16:33N 47°11' W 122°41'0 0.3
2016-Jul-20 15:33N 47°11' W 122°40'0 0.0
2016-Jul-20 14:33N 47°11' W 122°40'3 2.7
2016-Jul-20 13:33N 47°10' W 122°36'0 0.0
2016-Jul-20 12:33N 47°10' W 122°36'0 0.0
2016-Jul-20 11:33N 47°10' W 122°36'0 0.0
2016-Jul-20 04:31N 47°10' W 122°36'0 0.0
2016-Jul-20 03:28N 47°10' W 122°36'1 1.4
2016-Jul-20 02:33N 47°10' W 122°38'1 1.1
2016-Jul-20 01:25N 47°10' W 122°36'0 0.0
2016-Jul-20 00:29N 47°10' W 122°36'0 0.5
2016-Jul-19 23:33N 47°11' W 122°36'1 1.0
2016-Jul-19 22:33N 47°11' W 122°38'1 0.5
2016-Jul-19 21:33N 47°11' W 122°38'2 1.6
2016-Jul-19 20:32N 47°10' W 122°36'3 2.7
2016-Jul-19 19:25N 47°11' W 122°41'3 2.9
2016-Jul-19 18:22N 47°10' W 122°36'3 3.6
2016-Jul-19 17:33N 47°11' W 122°40'0 0.2
2016-Jul-19 16:33N 47°11' W 122°40'0 0.2
2016-Jul-19 15:33N 47°11' W 122°40'0 0.0
2016-Jul-19 14:33N 47°11' W 122°40'1 1.2
2016-Jul-19 13:26N 47°11' W 122°38'1 1.0
2016-Jul-19 12:31N 47°11' W 122°36'0 0.3
2016-Jul-19 11:33N 47°10' W 122°36'0 0.0
2016-Jul-19 04:26N 47°10' W 122°36'0 0.1
2016-Jul-19 03:33N 47°10' W 122°36'1 1.3
2016-Jul-19 02:34N 47°10' W 122°38'1 1.2
2016-Jul-19 01:32N 47°10' W 122°36'0 0.0
2016-Jul-19 00:14N 47°10' W 122°36'1 1.9
2016-Jul-18 23:33N 47°11' W 122°38'1 0.6
2016-Jul-18 22:33N 47°10' W 122°38'1 1.2
2016-Jul-18 21:33N 47°11' W 122°40'3 2.0
2016-Jul-18 20:15N 47°10' W 122°36'3 3.8
2016-Jul-18 19:33N 47°11' W 122°40'3 2.4
2016-Jul-18 18:27N 47°10' W 122°36'3 3.0
2016-Jul-18 17:33N 47°11' W 122°40'0 0.2
2016-Jul-18 16:33N 47°11' W 122°40'0 0.1
2016-Jul-18 15:33N 47°11' W 122°40'0 0.0
2016-Jul-18 14:33N 47°11' W 122°40'3 2.5
2016-Jul-18 13:32N 47°10' W 122°36'0 0.0
2016-Jul-18 12:33N 47°10' W 122°36'0 0.0
2016-Jul-18 11:30N 47°10' W 122°36'0 0.0
2016-Jul-18 04:33N 47°10' W 122°36'0 0.0
2016-Jul-18 03:14N 47°10' W 122°36'1 1.6
2016-Jul-18 02:28N 47°10' W 122°38'1 1.3
2016-Jul-18 01:29N 47°10' W 122°36'0 0.4
2016-Jul-18 00:33N 47°11' W 122°36'2 2.1
2016-Jul-17 23:33N 47°11' W 122°39'1 0.8
2016-Jul-17 22:33N 47°11' W 122°38'0 0.4
2016-Jul-17 21:33N 47°11' W 122°39'2 1.7
2016-Jul-17 20:23N 47°10' W 122°36'3 2.8
2016-Jul-17 19:21N 47°11' W 122°40'3 3.7
2016-Jul-17 18:33N 47°10' W 122°36'2 2.5
2016-Jul-17 17:34N 47°11' W 122°40'0 0.1
2016-Jul-17 16:33N 47°11' W 122°40'0 0.0
2016-Jul-17 15:32N 47°11' W 122°40'0 0.1
2016-Jul-17 14:33N 47°11' W 122°40'2 2.5
2016-Jul-17 13:33N 47°10' W 122°36'0 0.0
2016-Jul-17 06:08N 47°10' W 122°36'0 0.0
2016-Jul-17 04:28N 47°10' W 122°36'0 0.0
2016-Jul-17 03:24N 47°10' W 122°36'1 1.1
2016-Jul-17 02:33N 47°10' W 122°38'1 0.9
2016-Jul-17 01:33N 47°11' W 122°36'0 0.1
2016-Jul-17 00:33N 47°11' W 122°36'0 0.3
2016-Jul-16 23:27N 47°11' W 122°36'0 0.2
2016-Jul-16 22:33N 47°10' W 122°36'2 2.3
2016-Jul-16 21:33N 47°11' W 122°39'2 2.3
2016-Jul-16 20:33N 47°10' W 122°36'3 3.0
2016-Jul-16 19:33N 47°11' W 122°40'3 2.9
2016-Jul-16 18:33N 47°10' W 122°36'3 2.7
2016-Jul-16 17:26N 47°11' W 122°41'1 0.6
2016-Jul-16 16:33N 47°11' W 122°40'0 0.1
2016-Jul-16 15:33N 47°11' W 122°40'0 0.1
2016-Jul-16 14:33N 47°11' W 122°40'2 2.4
2016-Jul-16 13:32N 47°10' W 122°36'0 0.0
2016-Jul-16 12:33N 47°10' W 122°36'0 0.0
2016-Jul-16 07:07N 47°10' W 122°36'2 4.5
2016-Jul-16 06:33N 47°11' W 122°40'2 1.2
2016-Jul-16 04:27N 47°10' W 122°36'0 0.0
2016-Jul-16 03:29N 47°10' W 122°36'1 1.2
2016-Jul-16 02:33N 47°10' W 122°38'1 1.1
2016-Jul-16 01:33N 47°10' W 122°36'0 0.3
2016-Jul-16 00:33N 47°11' W 122°37'2 1.7
2016-Jul-15 23:33N 47°11' W 122°39'0 0.2
2016-Jul-15 22:33N 47°11' W 122°39'0 0.2
2016-Jul-15 21:32N 47°11' W 122°39'2 1.9
2016-Jul-15 20:31N 47°10' W 122°36'3 3.1
2016-Jul-15 19:33N 47°11' W 122°41'3 3.0
2016-Jul-15 18:33N 47°10' W 122°36'3 3.0
2016-Jul-15 17:33N 47°11' W 122°40'0 0.5
2016-Jul-15 16:33N 47°11' W 122°40'0 0.0
2016-Jul-15 15:33N 47°11' W 122°40'0 0.0
2016-Jul-15 14:33N 47°11' W 122°40'2 2.3
2016-Jul-15 13:30N 47°11' W 122°36'0 0.0
2016-Jul-15 12:33N 47°11' W 122°36'0 0.0
2016-Jul-15 04:33N 47°10' W 122°36'1 0.6
2016-Jul-15 02:33N 47°10' W 122°38'  
Track history (hours):
 
Tides and Currents Weather Stations Pressure Air Temp Water Temp Dewpoint Dewpoint Depression Visibility Wind Speed Wind Dir Waves Ship Positions

Christine Anderson

Owner: PIERCE, COUNTY OF, TACOMA, WA. More information available from US FCC via Universal Licensing System and Coast Guard Vessel Documentation Center.

Last reported at 2016-Jul-25 02:07 UTC. Time now 2016-Jul-25 15:55 UTC.
Position N 47°10' W 122°36'.

MMSI: 366659730.

Date/timePositionNaut miles runAvg speedWind from/ knotsBaromVisibWave heightAir tempDewpointWater temp
2016-Jul-25 02:07N 47°10' W 122°36'3 5.1
2016-Jul-25 01:32N 47°11' W 122°41'0 0.3
2016-Jul-25 00:33N 47°11' W 122°40'2 1.9
2016-Jul-24 23:33N 47°11' W 122°37'0 0.3
2016-Jul-24 22:34N 47°11' W 122°37'1 0.7
2016-Jul-24 21:34N 47°11' W 122°38'1 1.3
2016-Jul-24 20:32N 47°10' W 122°36'0 0.1
2016-Jul-24 19:33N 47°11' W 122°36'0 0.0
2016-Jul-24 13:28N 47°10' W 122°36'0 0.0
2016-Jul-24 06:09N 47°10' W 122°36'3 4.6
2016-Jul-24 05:33N 47°11' W 122°40'3 2.5
2016-Jul-24 04:28N 47°10' W 122°36'0 0.0
2016-Jul-24 03:28N 47°10' W 122°36'3 3.3
2016-Jul-24 02:33N 47°11' W 122°41'0 0.1
2016-Jul-24 01:33N 47°11' W 122°40'3 2.8
2016-Jul-24 00:32N 47°11' W 122°36'0 0.4
2016-Jul-23 23:33N 47°10' W 122°36'0 0.3
2016-Jul-23 22:08N 47°11' W 122°36'2 3.1
2016-Jul-23 21:33N 47°11' W 122°39'2 1.7
2016-Jul-23 20:27N 47°10' W 122°36'3 3.3
2016-Jul-23 19:33N 47°11' W 122°40'3 2.9
2016-Jul-23 18:32N 47°10' W 122°36'3 2.6
2016-Jul-23 17:22N 47°11' W 122°41'1 0.8
2016-Jul-23 16:33N 47°11' W 122°40'0 0.2
2016-Jul-23 15:32N 47°11' W 122°40'0 0.1
2016-Jul-23 14:33N 47°11' W 122°40'3 2.5
2016-Jul-23 13:33N 47°10' W 122°36'0 0.0
2016-Jul-23 12:33N 47°10' W 122°36'2 0.4
2016-Jul-23 06:33N 47°11' W 122°40'1 0.6
2016-Jul-23 04:34N 47°11' W 122°38'1 1.2
2016-Jul-23 03:32N 47°10' W 122°36'1 1.3
2016-Jul-23 02:33N 47°10' W 122°38'1 1.3
2016-Jul-23 01:33N 47°10' W 122°36'0 0.3
2016-Jul-23 00:32N 47°11' W 122°36'2 1.7
2016-Jul-22 23:33N 47°11' W 122°39'1 0.7
2016-Jul-22 22:34N 47°11' W 122°38'1 1.1
2016-Jul-22 21:33N 47°11' W 122°39'2 2.0
2016-Jul-22 20:27N 47°10' W 122°36'3 3.2
2016-Jul-22 19:33N 47°11' W 122°40'3 2.8
2016-Jul-22 18:33N 47°10' W 122°36'3 2.5
2016-Jul-22 17:22N 47°11' W 122°41'0 0.1
2016-Jul-22 16:33N 47°11' W 122°41'0 0.0
2016-Jul-22 15:33N 47°11' W 122°41'0 0.5
2016-Jul-22 14:33N 47°11' W 122°40'3 2.6
2016-Jul-22 13:34N 47°10' W 122°36'0 0.0
2016-Jul-22 12:34N 47°10' W 122°36'0 0.0
2016-Jul-22 11:32N 47°10' W 122°36'0 0.0
2016-Jul-22 04:33N 47°10' W 122°36'0 0.0
2016-Jul-22 03:33N 47°10' W 122°36'2 2.1
2016-Jul-22 02:33N 47°11' W 122°39'2 2.0
2016-Jul-22 01:31N 47°11' W 122°36'0 0.2
2016-Jul-22 00:26N 47°10' W 122°36'0 0.0
2016-Jul-21 23:19N 47°10' W 122°36'0 0.2
2016-Jul-21 22:07N 47°11' W 122°36'2 4.2
2016-Jul-21 21:33N 47°11' W 122°40'2 2.0
2016-Jul-21 20:20N 47°10' W 122°36'3 2.9
2016-Jul-21 19:19N 47°11' W 122°40'3 3.5
2016-Jul-21 18:29N 47°10' W 122°36'3 3.1
2016-Jul-21 17:30N 47°11' W 122°41'0 0.1
2016-Jul-21 16:24N 47°11' W 122°40'0 0.0
2016-Jul-21 15:18N 47°11' W 122°40'0 0.6
2016-Jul-21 14:33N 47°11' W 122°40'2 2.5
2016-Jul-21 13:33N 47°10' W 122°36'0 0.0
2016-Jul-21 12:33N 47°10' W 122°36'1 0.1
2016-Jul-21 04:23N 47°11' W 122°37'1 1.0
2016-Jul-21 03:30N 47°10' W 122°36'0 0.0
2016-Jul-21 02:33N 47°10' W 122°36'0 0.0
2016-Jul-21 01:27N 47°10' W 122°36'0 0.2
2016-Jul-21 00:12N 47°11' W 122°36'0 0.6
2016-Jul-20 23:33N 47°11' W 122°37'0 0.3
2016-Jul-20 22:11N 47°11' W 122°36'2 2.9
2016-Jul-20 21:31N 47°11' W 122°39'2 2.0
2016-Jul-20 20:31N 47°10' W 122°36'3 3.0
2016-Jul-20 19:31N 47°11' W 122°41'3 3.0
2016-Jul-20 18:30N 47°10' W 122°36'3 3.2
2016-Jul-20 17:33N 47°11' W 122°41'0 0.0
2016-Jul-20 16:33N 47°11' W 122°41'0 0.3
2016-Jul-20 15:33N 47°11' W 122°40'0 0.0
2016-Jul-20 14:33N 47°11' W 122°40'3 2.7
2016-Jul-20 13:33N 47°10' W 122°36'0 0.0
2016-Jul-20 12:33N 47°10' W 122°36'0 0.0
2016-Jul-20 11:33N 47°10' W 122°36'0 0.0
2016-Jul-20 04:31N 47°10' W 122°36'0 0.0
2016-Jul-20 03:28N 47°10' W 122°36'1 1.4
2016-Jul-20 02:33N 47°10' W 122°38'1 1.1
2016-Jul-20 01:25N 47°10' W 122°36'0 0.0
2016-Jul-20 00:29N 47°10' W 122°36'0 0.5
2016-Jul-19 23:33N 47°11' W 122°36'1 1.0
2016-Jul-19 22:33N 47°11' W 122°38'1 0.5
2016-Jul-19 21:33N 47°11' W 122°38'2 1.6
2016-Jul-19 20:32N 47°10' W 122°36'3 2.7
2016-Jul-19 19:25N 47°11' W 122°41'3 2.9
2016-Jul-19 18:22N 47°10' W 122°36'3 3.6
2016-Jul-19 17:33N 47°11' W 122°40'0 0.2
2016-Jul-19 16:33N 47°11' W 122°40'0 0.2
2016-Jul-19 15:33N 47°11' W 122°40'0 0.0
2016-Jul-19 14:33N 47°11' W 122°40'1 1.2
2016-Jul-19 13:26N 47°11' W 122°38'1 1.0
2016-Jul-19 12:31N 47°11' W 122°36'0 0.3
2016-Jul-19 11:33N 47°10' W 122°36'0 0.0
2016-Jul-19 04:26N 47°10' W 122°36'0 0.1
2016-Jul-19 03:33N 47°10' W 122°36'1 1.3
2016-Jul-19 02:34N 47°10' W 122°38'1 1.2
2016-Jul-19 01:32N 47°10' W 122°36'0 0.0
2016-Jul-19 00:14N 47°10' W 122°36'1 1.9
2016-Jul-18 23:33N 47°11' W 122°38'1 0.6
2016-Jul-18 22:33N 47°10' W 122°38'1 1.2
2016-Jul-18 21:33N 47°11' W 122°40'3 2.0
2016-Jul-18 20:15N 47°10' W 122°36'3 3.8
2016-Jul-18 19:33N 47°11' W 122°40'3 2.4
2016-Jul-18 18:27N 47°10' W 122°36'3 3.0
2016-Jul-18 17:33N 47°11' W 122°40'0 0.2
2016-Jul-18 16:33N 47°11' W 122°40'0 0.1
2016-Jul-18 15:33N 47°11' W 122°40'0 0.0
2016-Jul-18 14:33N 47°11' W 122°40'3 2.5
2016-Jul-18 13:32N 47°10' W 122°36'0 0.0
2016-Jul-18 12:33N 47°10' W 122°36'0 0.0
2016-Jul-18 11:30N 47°10' W 122°36'0 0.0
2016-Jul-18 04:33N 47°10' W 122°36'0 0.0
2016-Jul-18 03:14N 47°10' W 122°36'1 1.6
2016-Jul-18 02:28N 47°10' W 122°38'1 1.3
2016-Jul-18 01:29N 47°10' W 122°36'0 0.4
2016-Jul-18 00:33N 47°11' W 122°36'2 2.1
2016-Jul-17 23:33N 47°11' W 122°39'1 0.8
2016-Jul-17 22:33N 47°11' W 122°38'0 0.4
2016-Jul-17 21:33N 47°11' W 122°39'2 1.7
2016-Jul-17 20:23N 47°10' W 122°36'3 2.8
2016-Jul-17 19:21N 47°11' W 122°40'3 3.7
2016-Jul-17 18:33N 47°10' W 122°36'2 2.5
2016-Jul-17 17:34N 47°11' W 122°40'0 0.1
2016-Jul-17 16:33N 47°11' W 122°40'0 0.0
2016-Jul-17 15:32N 47°11' W 122°40'0 0.1
2016-Jul-17 14:33N 47°11' W 122°40'2 2.5
2016-Jul-17 13:33N 47°10' W 122°36'0 0.0
2016-Jul-17 06:08N 47°10' W 122°36'0 0.0
2016-Jul-17 04:28N 47°10' W 122°36'0 0.0
2016-Jul-17 03:24N 47°10' W 122°36'1 1.1
2016-Jul-17 02:33N 47°10' W 122°38'1 0.9
2016-Jul-17 01:33N 47°11' W 122°36'0 0.1
2016-Jul-17 00:33N 47°11' W 122°36'0 0.3
2016-Jul-16 23:27N 47°11' W 122°36'0 0.2
2016-Jul-16 22:33N 47°10' W 122°36'2 2.3
2016-Jul-16 21:33N 47°11' W 122°39'2 2.3
2016-Jul-16 20:33N 47°10' W 122°36'3 3.0
2016-Jul-16 19:33N 47°11' W 122°40'3 2.9
2016-Jul-16 18:33N 47°10' W 122°36'3 2.7
2016-Jul-16 17:26N 47°11' W 122°41'1 0.6
2016-Jul-16 16:33N 47°11' W 122°40'0 0.1
2016-Jul-16 15:33N 47°11' W 122°40'0 0.1
2016-Jul-16 14:33N 47°11' W 122°40'2 2.4
2016-Jul-16 13:32N 47°10' W 122°36'0 0.0
2016-Jul-16 12:33N 47°10' W 122°36'0 0.0
2016-Jul-16 07:07N 47°10' W 122°36'2 4.5
2016-Jul-16 06:33N 47°11' W 122°40'2 1.2
2016-Jul-16 04:27N 47°10' W 122°36'0 0.0
2016-Jul-16 03:29N 47°10' W 122°36'1 1.2
2016-Jul-16 02:33N 47°10' W 122°38'1 1.1
2016-Jul-16 01:33N 47°10' W 122°36'0 0.3
2016-Jul-16 00:33N 47°11' W 122°37'2 1.7
2016-Jul-15 23:33N 47°11' W 122°39'0 0.2
2016-Jul-15 22:33N 47°11' W 122°39'0 0.2
2016-Jul-15 21:32N 47°11' W 122°39'2 1.9
2016-Jul-15 20:31N 47°10' W 122°36'3 3.1
2016-Jul-15 19:33N 47°11' W 122°41'3 3.0
2016-Jul-15 18:33N 47°10' W 122°36'3 3.0
2016-Jul-15 17:33N 47°11' W 122°40'0 0.5
2016-Jul-15 16:33N 47°11' W 122°40'0 0.0
2016-Jul-15 15:33N 47°11' W 122°40'0 0.0
2016-Jul-15 14:33N 47°11' W 122°40'2 2.3
2016-Jul-15 13:30N 47°11' W 122°36'0 0.0
2016-Jul-15 12:33N 47°11' W 122°36'0 0.0
2016-Jul-15 04:33N 47°10' W 122°36'1 0.6
2016-Jul-15 02:33N 47°10' W 122°38'  

Dump ship's entire track history